createdAt,value
2023-07-17T00:28:34.135Z,2.47
2023-07-17T00:48:20.084Z,2.13
2023-07-17T00:52:32.312Z,2.00
2023-07-17T00:56:41.135Z,2.33
2023-07-17T01:01:21.219Z,2.20
2023-07-17T01:09:50.004Z,2.97
2023-07-17T01:13:56.907Z,2.03
2023-07-17T01:18:07.233Z,2.80
2023-07-17T01:27:05.312Z,2.60
2023-07-17T01:31:26.020Z,3.07
2023-07-17T01:35:36.782Z,2.63
2023-07-17T01:44:12.445Z,2.63
2023-07-17T01:53:13.369Z,2.47
2023-07-17T02:42:53.000Z,2.40
2023-07-17T02:47:03.477Z,2.33
2023-07-17T02:51:10.930Z,2.40
2023-07-17T02:55:15.257Z,1.87
2023-07-17T02:59:18.965Z,2.90
2023-07-17T03:03:24.576Z,3.03
2023-07-17T03:07:31.755Z,2.90
2023-07-17T03:11:36.107Z,2.80
2023-07-17T03:15:40.617Z,2.60
2023-07-17T03:19:45.702Z,2.60
2023-07-17T03:23:52.430Z,2.43
2023-07-17T03:27:59.586Z,2.20
2023-07-17T03:32:09.861Z,2.53
2023-07-17T03:36:14.678Z,2.33
2023-07-17T03:40:22.062Z,3.10
2023-07-17T03:44:28.074Z,2.60
2023-07-17T03:48:34.170Z,3.17
2023-07-17T03:52:44.505Z,3.07
2023-07-17T03:56:57.162Z,2.43
2023-07-17T04:01:04.984Z,2.73
2023-07-17T04:05:18.496Z,2.77
2023-07-17T04:09:24.832Z,2.50
2023-07-17T04:13:31.354Z,2.63
2023-07-17T04:17:36.425Z,3.03
2023-07-17T04:21:41.267Z,2.43
2023-07-17T04:26:03.466Z,3.10
2023-07-17T04:30:34.045Z,2.33
2023-07-17T04:34:53.098Z,2.33
2023-07-17T04:43:33.994Z,2.70
2023-07-17T04:47:42.649Z,2.93
2023-07-17T04:51:48.734Z,2.63
2023-07-17T04:55:58.594Z,2.93
2023-07-17T05:00:04.447Z,2.97
2023-07-17T05:04:12.740Z,2.53
2023-07-17T05:08:24.425Z,2.63
2023-07-17T05:12:29.923Z,2.80
2023-07-17T05:16:38.359Z,2.93
2023-07-17T05:21:03.439Z,1.92
2023-07-17T05:25:11.842Z,2.47
2023-07-17T05:29:24.083Z,2.33
2023-07-17T05:33:29.354Z,2.33
2023-07-17T05:37:36.445Z,2.20
2023-07-17T05:41:44.306Z,2.15
2023-07-17T05:45:51.139Z,2.42
2023-07-17T05:50:08.674Z,2.25
2023-07-17T05:54:40.847Z,2.25
2023-07-17T05:58:55.252Z,2.30
2023-07-17T06:03:00.435Z,2.25
2023-07-17T06:07:06.225Z,2.20
2023-07-17T06:11:13.644Z,2.10
2023-07-17T06:15:19.614Z,1.98
2023-07-17T06:20:16.455Z,1.92
2023-07-17T06:24:26.210Z,1.95
2023-07-17T06:28:32.686Z,2.47
2023-07-17T06:32:36.662Z,2.33
2023-07-17T06:36:40.852Z,2.03
2023-07-17T06:40:44.955Z,2.13
2023-07-17T06:44:50.185Z,2.25
2023-07-17T06:48:54.492Z,2.08
2023-07-17T06:52:58.283Z,2.22
2023-07-17T06:57:01.830Z,2.28
2023-07-17T07:01:10.676Z,2.45
2023-07-17T07:05:14.664Z,2.78
2023-07-17T07:09:19.088Z,2.00
2023-07-17T07:13:23.602Z,2.17
2023-07-17T07:17:33.261Z,2.15
2023-07-17T07:21:38.096Z,2.80
2023-07-17T07:25:45.331Z,2.25
2023-07-17T07:29:49.304Z,2.25
2023-07-17T07:33:55.837Z,1.98
2023-07-17T07:37:59.908Z,2.00
2023-07-17T07:42:06.745Z,1.95
2023-07-17T07:46:11.446Z,2.00
2023-07-17T07:50:16.933Z,2.30
2023-07-17T07:54:22.470Z,2.73
2023-07-17T07:58:26.658Z,2.33
2023-07-17T08:02:31.715Z,1.90
2023-07-17T08:06:37.334Z,1.87
2023-07-17T08:10:43.089Z,2.33
2023-07-17T08:14:47.099Z,2.00
2023-07-17T08:18:51.544Z,2.00
2023-07-17T08:22:57.538Z,2.30
2023-07-17T08:27:03.643Z,2.57
2023-07-17T08:31:07.655Z,2.23
2023-07-17T08:35:14.793Z,1.97
2023-07-17T08:39:20.459Z,2.50
2023-07-17T08:43:25.893Z,2.67
2023-07-17T08:47:29.580Z,1.90
2023-07-17T08:51:33.301Z,2.13
2023-07-17T08:55:39.645Z,2.03
2023-07-17T08:59:44.157Z,2.47
2023-07-17T09:03:48.463Z,2.27
2023-07-17T09:07:52.231Z,2.50
2023-07-17T09:12:10.592Z,2.40
2023-07-17T09:16:17.097Z,2.73
2023-07-17T09:20:21.934Z,2.60
2023-07-17T09:24:27.228Z,2.53
2023-07-17T09:28:32.942Z,2.70
2023-07-17T09:32:37.324Z,2.40
2023-07-17T09:36:40.966Z,3.13
2023-07-17T09:40:44.745Z,2.27
2023-07-17T09:44:50.533Z,2.27
2023-07-17T09:48:56.110Z,2.80
2023-07-17T09:53:01.068Z,2.43
2023-07-17T09:57:09.233Z,2.60
2023-07-17T10:06:41.244Z,2.73
2023-07-17T10:16:03.248Z,2.60
2023-07-17T10:20:12.089Z,2.83
2023-07-17T10:24:17.617Z,3.63
2023-07-17T10:28:33.654Z,2.90
2023-07-17T10:32:42.510Z,2.90
2023-07-17T10:36:47.339Z,2.93
2023-07-17T10:41:03.819Z,2.87
2023-07-17T10:45:11.447Z,3.13
2023-07-17T10:49:20.999Z,2.90
2023-07-17T10:53:25.832Z,2.97
2023-07-17T10:57:31.377Z,3.10
2023-07-17T11:01:34.985Z,2.73
2023-07-17T11:05:40.282Z,3.00
2023-07-17T11:09:45.672Z,3.37
2023-07-17T11:13:53.205Z,2.73
2023-07-17T11:17:56.908Z,2.80
2023-07-17T11:22:00.516Z,2.47
2023-07-17T11:26:05.976Z,2.20
2023-07-17T11:30:23.030Z,1.70
2023-07-17T11:34:27.013Z,1.60
2023-07-17T11:38:31.841Z,1.67
2023-07-17T11:42:56.915Z,1.60
2023-07-17T11:47:10.117Z,1.67
2023-07-17T11:51:13.675Z,1.63
2023-07-17T11:55:24.554Z,1.58
2023-07-17T11:59:28.451Z,1.48
2023-07-17T12:03:33.798Z,1.50
2023-07-17T12:07:38.733Z,1.73
2023-07-17T12:11:43.826Z,1.40
2023-07-17T12:15:47.827Z,1.63
2023-07-17T12:19:53.006Z,1.58
2023-07-17T12:23:57.980Z,1.75
2023-07-17T12:28:11.797Z,1.48
2023-07-17T12:32:16.834Z,1.42
2023-07-17T12:36:22.173Z,1.52
2023-07-17T12:40:26.253Z,1.60
2023-07-17T12:44:30.568Z,1.20
2023-07-17T12:48:34.310Z,1.30
2023-07-17T12:52:39.746Z,1.63
2023-07-17T12:56:44.682Z,1.40
2023-07-17T13:00:48.443Z,1.30
2023-07-17T13:04:51.869Z,1.55
2023-07-17T13:08:57.058Z,1.42
2023-07-17T13:13:00.648Z,1.23
2023-07-17T13:17:04.274Z,1.55
2023-07-17T13:21:09.075Z,1.13
2023-07-17T13:25:35.570Z,1.30
2023-07-17T13:29:44.742Z,1.90
2023-07-17T13:33:48.759Z,1.40
2023-07-17T13:37:52.695Z,1.40
2023-07-17T13:42:00.410Z,1.45
2023-07-17T13:46:04.406Z,1.80
2023-07-17T13:50:10.975Z,1.60
2023-07-17T13:54:19.979Z,1.67
2023-07-17T13:58:26.095Z,1.60
2023-07-17T14:02:29.989Z,1.65
2023-07-17T14:06:33.656Z,1.80
2023-07-17T14:10:37.180Z,1.60
2023-07-17T14:14:42.860Z,1.98
2023-07-17T14:18:46.632Z,1.63
2023-07-17T14:22:51.199Z,1.80
2023-07-17T14:26:55.178Z,1.70
2023-07-17T14:31:01.493Z,1.90
2023-07-17T14:35:10.995Z,2.00
2023-07-17T14:39:15.388Z,1.65
2023-07-17T14:43:19.029Z,1.75
2023-07-17T14:47:24.341Z,1.92
2023-07-17T14:51:28.298Z,2.20
2023-07-17T14:55:34.523Z,1.98
2023-07-17T14:59:39.793Z,1.67
2023-07-17T15:03:58.726Z,1.90
2023-07-17T15:08:02.283Z,1.88
2023-07-17T15:12:06.883Z,2.00
2023-07-17T15:16:10.668Z,1.83
2023-07-17T15:20:16.284Z,2.15
2023-07-17T15:24:19.874Z,2.22
2023-07-17T15:28:23.700Z,1.90
2023-07-17T15:32:28.056Z,1.65
2023-07-17T15:36:33.351Z,2.17
2023-07-17T15:40:37.027Z,2.00
2023-07-17T15:44:40.592Z,2.15
2023-07-17T15:48:47.775Z,2.33
2023-07-17T15:52:52.923Z,2.33
2023-07-17T15:56:56.762Z,2.28
2023-07-17T16:01:01.279Z,2.35
2023-07-17T16:05:05.800Z,2.30
2023-07-17T16:09:12.277Z,1.98
2023-07-17T16:13:16.547Z,2.40
2023-07-17T16:17:20.410Z,2.38
2023-07-17T16:21:24.725Z,2.30
2023-07-17T16:25:30.511Z,2.53
2023-07-17T16:29:35.605Z,2.38
2023-07-17T16:33:39.650Z,2.30
2023-07-17T16:37:43.174Z,2.80
2023-07-17T16:41:49.171Z,2.15
2023-07-17T16:46:01.343Z,2.53
2023-07-17T16:50:05.134Z,2.58
2023-07-17T17:10:39.178Z,2.95
2023-07-17T17:14:44.484Z,2.50
2023-07-17T17:18:51.784Z,2.83
2023-07-17T17:22:56.769Z,3.15
2023-07-17T17:27:06.310Z,3.38
2023-07-17T17:31:11.883Z,2.37
2023-07-17T17:35:47.698Z,2.57
2023-07-17T17:39:51.715Z,2.87
2023-07-17T17:44:26.386Z,2.97
2023-07-17T17:48:33.339Z,2.30
2023-07-17T17:52:39.802Z,2.40
2023-07-17T17:57:44.685Z,2.90
2023-07-17T18:06:43.989Z,2.77
2023-07-17T18:11:14.207Z,2.23
2023-07-17T18:16:34.822Z,2.70
2023-07-17T18:21:11.387Z,2.40
2023-07-17T18:25:52.949Z,2.30
2023-07-17T18:30:15.787Z,2.63
2023-07-17T18:34:34.773Z,2.83
2023-07-17T18:38:55.969Z,2.60
2023-07-17T18:43:19.428Z,2.80
2023-07-17T18:47:33.486Z,2.33
2023-07-17T18:51:47.554Z,2.33
2023-07-17T18:56:02.024Z,2.43
2023-07-17T19:18:00.550Z,2.60
2023-07-17T19:22:26.643Z,3.00
2023-07-17T19:26:46.571Z,3.17
2023-07-17T19:31:30.935Z,2.93
2023-07-17T19:36:18.623Z,3.50
2023-07-17T19:40:26.091Z,3.50
2023-07-17T19:44:43.483Z,3.40
2023-07-17T19:49:13.018Z,3.47
2023-07-17T19:53:47.365Z,3.13
2023-07-17T19:58:09.816Z,3.60
2023-07-17T20:02:33.265Z,3.43
2023-07-17T20:07:10.999Z,3.50
2023-07-17T20:26:44.666Z,4.10
2023-07-17T20:30:52.673Z,3.70
2023-07-17T20:35:32.311Z,4.20
2023-07-17T20:40:17.923Z,3.67
2023-07-17T21:35:11.882Z,4.27
2023-07-17T21:39:16.044Z,3.80
2023-07-17T21:43:21.836Z,3.93
2023-07-17T21:47:55.722Z,4.27
2023-07-17T21:52:14.630Z,4.23
2023-07-17T21:56:25.927Z,4.53
2023-07-17T22:01:17.363Z,4.47
2023-07-17T22:24:14.755Z,4.20
2023-07-17T22:33:23.588Z,4.60
2023-07-17T22:42:16.301Z,4.07
2023-07-17T22:46:39.162Z,3.97
2023-07-17T22:51:39.030Z,4.40
2023-07-17T22:55:46.897Z,3.83
2023-07-17T23:00:21.727Z,3.77
2023-07-17T23:04:30.610Z,4.07
2023-07-17T23:09:21.912Z,4.37
2023-07-17T23:13:28.974Z,4.07
2023-07-17T23:18:42.376Z,4.03
2023-07-17T23:23:36.925Z,4.10
2023-07-17T23:28:13.634Z,4.57
2023-07-17T23:37:16.153Z,4.40
2023-07-17T23:41:20.841Z,4.83
2023-07-17T23:45:57.643Z,4.63
2023-07-17T23:50:02.108Z,4.23
2023-07-17T23:54:08.330Z,4.47
2023-07-17T23:58:12.556Z,4.23
